createdAt,value
2023-02-11T00:00:34.923Z,10.02
2023-02-11T00:03:02.018Z,10.02
2023-02-11T00:05:29.234Z,10.03
2023-02-11T00:07:56.246Z,10.03
2023-02-11T00:10:23.439Z,10.03
2023-02-11T00:12:50.537Z,10.03
2023-02-11T00:15:17.990Z,10.00
2023-02-11T00:17:44.979Z,10.02
2023-02-11T00:20:12.448Z,10.02
2023-02-11T00:22:39.508Z,10.00
2023-02-11T00:25:06.920Z,10.02
2023-02-11T00:27:34.085Z,10.03
2023-02-11T00:30:02.459Z,10.08
2023-02-11T00:32:31.006Z,10.03
2023-02-11T00:34:58.255Z,9.98
2023-02-11T00:37:25.253Z,10.02
2023-02-11T00:39:52.463Z,10.03
2023-02-11T00:42:19.562Z,10.00
2023-02-11T00:44:46.563Z,9.99
2023-02-11T00:47:17.077Z,9.97
2023-02-11T00:49:44.404Z,9.98
2023-02-11T00:52:11.424Z,9.94
2023-02-11T00:54:38.528Z,9.97
2023-02-11T00:57:06.940Z,10.01
2023-02-11T00:59:33.961Z,10.02
2023-02-11T01:02:01.941Z,10.06
2023-02-11T01:04:28.966Z,10.03
2023-02-11T01:06:56.175Z,9.99
2023-02-11T01:09:25.193Z,9.99
2023-02-11T01:11:52.298Z,9.98
2023-02-11T01:14:19.362Z,9.96
2023-02-11T01:16:46.475Z,9.97
2023-02-11T01:19:13.768Z,9.94
2023-02-11T01:21:41.067Z,9.96
2023-02-11T01:24:08.267Z,9.95
2023-02-11T01:26:36.239Z,9.94
2023-02-11T01:29:04.058Z,9.89
2023-02-11T01:31:31.729Z,9.93
2023-02-11T01:34:01.271Z,9.93
2023-02-11T01:36:28.562Z,9.90
2023-02-11T01:38:55.767Z,9.89
2023-02-11T01:41:22.808Z,9.92
2023-02-11T01:43:50.905Z,9.96
2023-02-11T01:46:38.530Z,9.91
2023-02-11T01:49:15.298Z,9.83
2023-02-11T01:51:47.808Z,9.89
2023-02-11T01:54:40.728Z,9.91
2023-02-11T01:57:27.708Z,9.94
2023-02-11T01:59:58.146Z,9.94
2023-02-11T02:02:43.046Z,9.91
2023-02-11T02:05:16.794Z,9.95
2023-02-11T02:07:56.237Z,9.94
2023-02-11T02:10:26.557Z,9.89
2023-02-11T02:12:53.764Z,9.89
2023-02-11T02:15:34.032Z,9.88
2023-02-11T02:18:15.169Z,9.90
2023-02-11T02:20:51.458Z,9.95
2023-02-11T02:23:57.939Z,9.93
2023-02-11T02:26:54.038Z,9.96
2023-02-11T02:29:42.694Z,9.92
2023-02-11T02:32:33.665Z,9.88
2023-02-11T02:35:12.909Z,9.86
2023-02-11T02:37:52.212Z,9.85
2023-02-11T02:40:29.709Z,9.89
2023-02-11T02:42:58.514Z,9.89
2023-02-11T02:45:25.486Z,9.89
2023-02-11T02:47:52.687Z,9.86
2023-02-11T02:50:30.390Z,9.85
2023-02-11T02:53:20.520Z,9.84
2023-02-11T02:55:47.656Z,9.78
2023-02-11T02:58:33.506Z,9.84
2023-02-11T03:01:19.082Z,9.83
2023-02-11T03:04:01.677Z,9.75
2023-02-11T03:06:47.314Z,9.72
2023-02-11T03:09:40.537Z,9.74
2023-02-11T03:12:10.800Z,9.76
2023-02-11T03:14:39.116Z,9.78
2023-02-11T03:17:08.619Z,9.81
2023-02-11T03:19:38.968Z,9.79
2023-02-11T03:22:12.058Z,9.80
2023-02-11T03:24:41.532Z,9.74
2023-02-11T03:27:20.708Z,9.74
2023-02-11T03:29:59.733Z,9.70
2023-02-11T03:32:36.547Z,9.58
2023-02-11T03:35:21.769Z,9.50
2023-02-11T03:37:55.652Z,9.53
2023-02-11T03:40:32.791Z,9.48
2023-02-11T03:43:13.340Z,9.37
2023-02-11T03:45:41.283Z,9.19
2023-02-11T03:48:43.288Z,9.02
2023-02-11T03:51:12.883Z,8.90
2023-02-11T03:53:43.255Z,8.87
2023-02-11T03:56:18.074Z,8.80
2023-02-11T03:58:46.164Z,8.71
2023-02-11T04:01:13.413Z,8.69
2023-02-11T04:03:40.596Z,8.73
2023-02-11T04:06:08.116Z,8.70
2023-02-11T04:08:35.264Z,8.61
2023-02-11T04:11:02.418Z,8.42
2023-02-11T04:13:29.956Z,8.28
2023-02-11T04:15:57.050Z,8.18
2023-02-11T04:18:24.428Z,8.12
2023-02-11T04:20:51.634Z,7.99
2023-02-11T04:23:18.689Z,7.88
2023-02-11T04:25:45.877Z,7.83
2023-02-11T04:28:13.874Z,7.77
2023-02-11T04:30:41.251Z,7.67
2023-02-11T04:33:08.311Z,7.66
2023-02-11T04:35:35.480Z,7.66
2023-02-11T04:38:03.822Z,7.67
2023-02-11T04:40:30.984Z,7.63
2023-02-11T04:42:58.159Z,7.60
2023-02-11T04:45:25.258Z,7.52
2023-02-11T04:47:52.418Z,7.39
2023-02-11T04:50:19.580Z,7.39
2023-02-11T04:52:46.810Z,7.36
2023-02-11T04:55:14.054Z,7.32
2023-02-11T04:57:41.134Z,7.28
2023-02-11T05:00:10.142Z,7.24
2023-02-11T05:02:37.221Z,7.22
2023-02-11T05:05:05.199Z,7.15
2023-02-11T05:07:32.561Z,7.12
2023-02-11T05:09:59.695Z,7.05
2023-02-11T05:12:26.753Z,7.05
2023-02-11T05:14:53.975Z,7.02
2023-02-11T05:17:21.148Z,7.07
2023-02-11T05:19:48.426Z,7.10
2023-02-11T05:22:15.409Z,7.13
2023-02-11T05:24:42.564Z,7.16
2023-02-11T05:27:09.620Z,7.17
2023-02-11T05:29:36.812Z,7.16
2023-02-11T05:32:03.893Z,7.17
2023-02-11T05:34:31.101Z,7.17
2023-02-11T05:36:58.177Z,7.23
2023-02-11T05:39:25.258Z,7.26
2023-02-11T05:41:52.476Z,7.23
2023-02-11T05:44:19.496Z,7.22
2023-02-11T05:46:46.732Z,7.23
2023-02-11T05:49:13.744Z,7.34
2023-02-11T05:51:41.295Z,7.37
2023-02-11T05:54:08.400Z,7.42
2023-02-11T05:56:35.628Z,7.51
2023-02-11T05:59:02.819Z,7.56
2023-02-11T06:01:29.870Z,7.59
2023-02-11T06:03:57.352Z,7.65
2023-02-11T06:06:25.714Z,7.74
2023-02-11T06:08:52.780Z,7.82
2023-02-11T06:11:20.516Z,7.92
2023-02-11T06:13:47.565Z,8.05
2023-02-11T06:16:14.872Z,8.23
2023-02-11T06:18:42.018Z,8.54
2023-02-11T06:21:11.136Z,8.99
2023-02-11T06:23:39.014Z,9.38
2023-02-11T06:26:09.009Z,9.83
2023-02-11T06:28:36.552Z,10.22
2023-02-11T06:31:07.177Z,10.45
2023-02-11T06:33:35.259Z,10.68
2023-02-11T06:36:03.446Z,10.98
2023-02-11T06:38:30.723Z,11.49
2023-02-11T06:40:57.750Z,11.94
2023-02-11T06:43:24.785Z,12.30
2023-02-11T06:45:56.190Z,12.51
2023-02-11T06:48:24.297Z,12.76
2023-02-11T06:50:51.372Z,12.99
2023-02-11T06:53:18.554Z,13.09
2023-02-11T06:55:45.528Z,13.10
2023-02-11T06:58:12.716Z,12.98
2023-02-11T07:00:39.798Z,12.60
2023-02-11T07:03:06.988Z,12.28
2023-02-11T07:05:34.519Z,11.94
2023-02-11T07:08:01.747Z,11.67
2023-02-11T07:10:28.793Z,11.45
2023-02-11T07:12:58.637Z,11.27
2023-02-11T07:15:26.032Z,11.11
2023-02-11T07:17:53.180Z,11.02
2023-02-11T07:20:20.543Z,10.94
2023-02-11T07:22:47.611Z,10.88
2023-02-11T07:25:16.102Z,10.91
2023-02-11T07:27:43.385Z,10.86
2023-02-11T07:30:11.435Z,10.90
2023-02-11T07:32:38.441Z,10.92
2023-02-11T07:35:06.104Z,10.97
2023-02-11T07:37:36.336Z,11.03
2023-02-11T07:40:03.730Z,11.15
2023-02-11T07:42:32.001Z,11.31
2023-02-11T07:44:59.228Z,11.42
2023-02-11T07:47:26.317Z,11.54
2023-02-11T07:49:56.468Z,11.66
2023-02-11T07:52:23.988Z,11.64
2023-02-11T07:54:51.167Z,11.64
2023-02-11T07:57:18.602Z,11.63
2023-02-11T07:59:45.770Z,11.69
2023-02-11T08:02:12.820Z,11.90
2023-02-11T08:04:40.045Z,12.04
2023-02-11T08:07:07.246Z,12.29
2023-02-11T08:09:34.681Z,12.42
2023-02-11T08:12:01.851Z,12.55
2023-02-11T08:14:29.060Z,12.45
2023-02-11T08:16:56.101Z,12.36
2023-02-11T08:19:23.153Z,12.47
2023-02-11T08:21:50.669Z,12.35
2023-02-11T08:24:17.706Z,12.48
2023-02-11T08:26:44.891Z,12.57
2023-02-11T08:29:14.113Z,12.52
2023-02-11T08:31:43.420Z,12.63
2023-02-11T08:34:11.851Z,12.81
2023-02-11T08:36:40.455Z,12.78
2023-02-11T08:39:19.922Z,12.67
2023-02-11T08:41:50.080Z,12.50
2023-02-11T08:44:19.073Z,12.57
2023-02-11T08:46:46.764Z,12.30
2023-02-11T08:49:14.812Z,12.12
2023-02-11T08:51:42.265Z,12.16
2023-02-11T08:54:10.153Z,12.24
2023-02-11T08:56:39.213Z,12.20
2023-02-11T08:59:07.221Z,11.97
2023-02-11T09:01:34.500Z,12.20
2023-02-11T09:04:01.731Z,12.24
2023-02-11T09:06:29.265Z,12.27
2023-02-11T09:08:57.501Z,12.30
2023-02-11T09:11:36.018Z,12.29
2023-02-11T09:14:04.559Z,12.57
2023-02-11T09:16:33.962Z,12.57
2023-02-11T09:19:02.334Z,12.44
2023-02-11T09:21:30.460Z,12.57
2023-02-11T09:23:58.003Z,12.59
2023-02-11T09:26:28.016Z,12.74
2023-02-11T09:28:55.645Z,12.83
2023-02-11T09:31:26.302Z,12.98
2023-02-11T09:33:57.489Z,12.96
2023-02-11T09:36:30.541Z,13.03
2023-02-11T09:39:00.344Z,13.14
2023-02-11T09:41:49.417Z,13.05
2023-02-11T09:44:28.870Z,13.06
2023-02-11T09:47:15.830Z,13.06
2023-02-11T09:49:48.895Z,12.81
2023-02-11T09:52:18.704Z,12.89
2023-02-11T09:54:53.183Z,12.83
2023-02-11T09:57:28.676Z,12.72
2023-02-11T09:59:57.955Z,12.45
2023-02-11T10:02:48.057Z,12.59
2023-02-11T10:05:21.247Z,12.59
2023-02-11T10:08:07.855Z,12.54
2023-02-11T10:10:48.178Z,12.63
2023-02-11T10:13:30.712Z,12.74
2023-02-11T10:16:18.376Z,12.71
2023-02-11T10:19:07.507Z,12.74
2023-02-11T10:21:46.695Z,12.82
2023-02-11T10:24:16.163Z,12.89
2023-02-11T10:26:44.788Z,12.96
2023-02-11T10:29:16.661Z,12.87
2023-02-11T10:31:46.844Z,12.96
2023-02-11T10:34:15.536Z,12.98
2023-02-11T10:36:44.481Z,12.90
2023-02-11T10:39:17.795Z,12.93
2023-02-11T10:42:11.023Z,13.00
2023-02-11T10:45:00.654Z,12.89
2023-02-11T10:47:33.392Z,12.87
2023-02-11T10:50:03.818Z,12.69
2023-02-11T10:52:31.639Z,12.70
2023-02-11T10:55:24.667Z,12.97
2023-02-11T10:57:56.464Z,13.18
2023-02-11T11:00:29.417Z,13.27
2023-02-11T11:02:59.836Z,13.28
2023-02-11T11:05:46.596Z,13.22
2023-02-11T11:08:13.803Z,13.26
2023-02-11T11:10:44.915Z,13.51
2023-02-11T11:13:31.414Z,13.46
2023-02-11T11:16:13.496Z,13.44
2023-02-11T11:18:49.593Z,13.56
2023-02-11T11:21:36.914Z,13.60
2023-02-11T11:24:04.656Z,13.67
2023-02-11T11:26:48.090Z,13.79
2023-02-11T11:29:24.612Z,13.59
2023-02-11T11:31:54.156Z,13.63
2023-02-11T11:34:33.675Z,13.59
2023-02-11T11:37:10.730Z,13.33
2023-02-11T11:39:39.504Z,13.15
2023-02-11T11:42:28.700Z,13.28
2023-02-11T11:45:19.893Z,13.19
2023-02-11T11:47:58.839Z,13.33
2023-02-11T11:50:53.936Z,13.48
2023-02-11T11:53:21.537Z,13.42
2023-02-11T11:56:05.366Z,13.43
2023-02-11T11:58:32.816Z,13.43
2023-02-11T12:01:05.629Z,13.45
2023-02-11T12:03:51.743Z,13.58
2023-02-11T12:06:35.340Z,13.50
2023-02-11T12:09:18.020Z,13.55
2023-02-11T12:12:09.103Z,13.64
2023-02-11T12:14:36.270Z,13.65
2023-02-11T12:17:21.601Z,13.62
2023-02-11T12:19:57.633Z,13.65
2023-02-11T12:22:39.861Z,13.77
2023-02-11T12:25:28.410Z,13.71
2023-02-11T12:28:16.350Z,13.42
2023-02-11T12:31:34.035Z,13.57
2023-02-11T12:34:31.719Z,13.58
2023-02-11T12:37:09.439Z,13.57
2023-02-11T12:39:42.286Z,13.44
2023-02-11T12:42:55.900Z,13.46
2023-02-11T12:45:39.058Z,13.55
2023-02-11T12:48:13.026Z,13.40
2023-02-11T12:50:43.247Z,12.85
2023-02-11T12:53:41.490Z,12.97
2023-02-11T12:56:25.197Z,13.29
2023-02-11T12:58:56.304Z,13.19
2023-02-11T13:01:37.028Z,13.12
2023-02-11T13:04:16.340Z,13.06
2023-02-11T13:06:56.350Z,12.90
2023-02-11T13:09:30.847Z,12.66
2023-02-11T13:12:22.548Z,12.63
2023-02-11T13:14:53.049Z,12.54
2023-02-11T13:17:36.340Z,12.69
2023-02-11T13:20:20.953Z,12.88
2023-02-11T13:23:10.333Z,13.06
2023-02-11T13:25:53.809Z,13.16
2023-02-11T13:28:28.568Z,13.37
2023-02-11T13:31:03.152Z,13.47
2023-02-11T13:33:39.678Z,13.20
2023-02-11T13:36:06.690Z,13.10
2023-02-11T13:38:34.558Z,13.00
2023-02-11T13:41:22.394Z,12.96
2023-02-11T13:44:22.396Z,13.14
2023-02-11T13:47:07.238Z,13.35
2023-02-11T13:49:42.979Z,13.55
2023-02-11T13:52:35.048Z,13.52
2023-02-11T13:55:21.820Z,13.26
2023-02-11T13:58:07.400Z,13.20
2023-02-11T14:00:34.385Z,13.26
2023-02-11T14:03:29.164Z,13.17
2023-02-11T14:06:37.424Z,13.47
2023-02-11T14:09:10.654Z,13.34
2023-02-11T14:12:16.443Z,13.01
2023-02-11T14:15:07.980Z,12.68
2023-02-11T14:17:35.495Z,12.68
2023-02-11T14:20:05.101Z,12.69
2023-02-11T14:22:47.968Z,12.60
2023-02-11T14:25:24.378Z,12.54
2023-02-11T14:28:02.326Z,12.39
2023-02-11T14:30:51.485Z,12.36
2023-02-11T14:33:48.043Z,12.16
2023-02-11T14:36:43.805Z,12.18
2023-02-11T14:39:32.879Z,12.35
2023-02-11T14:42:02.882Z,12.47
2023-02-11T14:44:33.276Z,12.47
2023-02-11T14:47:00.888Z,12.47
2023-02-11T14:49:32.294Z,12.54
2023-02-11T14:52:28.765Z,12.46
2023-02-11T14:55:17.708Z,12.28
2023-02-11T14:57:45.975Z,12.25
2023-02-11T15:00:22.452Z,12.22
2023-02-11T15:02:49.659Z,12.26
2023-02-11T15:05:26.213Z,12.26
2023-02-11T15:07:56.408Z,12.24
2023-02-11T15:10:44.298Z,12.30
2023-02-11T15:13:27.306Z,12.19
2023-02-11T15:16:10.102Z,12.16
2023-02-11T15:18:45.111Z,12.10
2023-02-11T15:21:12.470Z,12.02
2023-02-11T15:23:41.232Z,11.94
2023-02-11T15:26:18.120Z,11.88
2023-02-11T15:28:52.766Z,11.85
2023-02-11T15:31:23.559Z,11.82
2023-02-11T15:33:51.848Z,11.77
2023-02-11T15:36:24.040Z,11.76
2023-02-11T15:39:41.281Z,11.78
2023-02-11T15:42:27.842Z,11.72
2023-02-11T15:45:17.131Z,11.70
2023-02-11T15:47:51.488Z,11.73
2023-02-11T15:50:26.971Z,11.73
2023-02-11T15:52:56.369Z,11.78
2023-02-11T15:55:25.588Z,11.75
2023-02-11T15:57:57.384Z,11.76
2023-02-11T16:00:36.252Z,11.69
2023-02-11T16:03:03.778Z,11.72
2023-02-11T16:05:34.868Z,11.68
2023-02-11T16:08:27.142Z,11.65
2023-02-11T16:11:03.492Z,11.57
2023-02-11T16:13:43.502Z,11.49
2023-02-11T16:16:26.693Z,11.46
2023-02-11T16:19:05.218Z,11.34
2023-02-11T16:21:42.606Z,11.36
2023-02-11T16:24:20.367Z,11.32
2023-02-11T16:26:50.379Z,11.28
2023-02-11T16:29:37.990Z,11.22
2023-02-11T16:32:21.049Z,11.20
2023-02-11T16:34:51.076Z,11.13
2023-02-11T16:37:18.328Z,11.11
2023-02-11T16:39:45.547Z,11.09
2023-02-11T16:42:13.137Z,11.07
2023-02-11T16:44:40.161Z,11.02
2023-02-11T16:47:17.076Z,10.97
2023-02-11T16:49:44.310Z,10.95
2023-02-11T16:52:16.316Z,10.94
2023-02-11T16:54:43.539Z,10.89
2023-02-11T16:57:24.355Z,10.89
2023-02-11T16:59:52.301Z,10.80
2023-02-11T17:02:26.004Z,10.75
2023-02-11T17:04:55.410Z,10.71
2023-02-11T17:07:22.836Z,10.68
2023-02-11T17:09:50.292Z,10.62
2023-02-11T17:12:17.308Z,10.49
2023-02-11T17:14:44.405Z,10.38
2023-02-11T17:17:12.128Z,10.33
2023-02-11T17:19:39.676Z,10.29
2023-02-11T17:22:07.010Z,10.24
2023-02-11T17:24:34.187Z,10.15
2023-02-11T17:27:01.217Z,10.06
2023-02-11T17:29:28.724Z,9.96
2023-02-11T17:31:55.937Z,9.85
2023-02-11T17:34:23.989Z,9.75
2023-02-11T17:36:51.959Z,9.67
2023-02-11T17:39:21.236Z,9.62
2023-02-11T17:41:48.460Z,9.57
2023-02-11T17:44:16.629Z,9.55
2023-02-11T17:46:44.019Z,9.53
2023-02-11T17:49:12.462Z,9.54
2023-02-11T17:51:40.778Z,9.51
2023-02-11T17:54:11.393Z,9.51
2023-02-11T17:56:39.312Z,9.50
2023-02-11T17:59:08.643Z,9.53
2023-02-11T18:01:37.288Z,9.52
2023-02-11T18:04:05.446Z,9.52
2023-02-11T18:06:33.962Z,9.53
2023-02-11T18:09:04.428Z,9.52
2023-02-11T18:11:34.136Z,9.50
2023-02-11T18:14:07.890Z,9.48
2023-02-11T18:16:39.374Z,9.45
2023-02-11T18:19:07.884Z,9.40
2023-02-11T18:21:35.376Z,9.36
2023-02-11T18:24:06.527Z,9.35
2023-02-11T18:26:34.685Z,9.31
2023-02-11T18:29:02.037Z,9.28
2023-02-11T18:31:29.437Z,9.27
2023-02-11T18:33:56.631Z,9.26
2023-02-11T18:36:23.766Z,9.25
2023-02-11T18:38:52.758Z,9.23
2023-02-11T18:41:20.033Z,9.19
2023-02-11T18:43:47.217Z,9.16
2023-02-11T18:46:15.491Z,9.11
2023-02-11T18:48:44.936Z,9.08
2023-02-11T18:51:21.205Z,9.04
2023-02-11T18:53:48.386Z,9.01
2023-02-11T18:56:18.255Z,8.97
2023-02-11T18:58:45.486Z,8.95
2023-02-11T19:01:18.673Z,8.91
2023-02-11T19:03:45.991Z,8.91
2023-02-11T19:06:25.581Z,8.89
2023-02-11T19:08:55.913Z,8.87
2023-02-11T19:11:44.081Z,8.82
2023-02-11T19:14:11.797Z,8.77
2023-02-11T19:16:41.769Z,8.72
2023-02-11T19:19:09.626Z,8.68
2023-02-11T19:21:37.128Z,8.64
2023-02-11T19:24:08.335Z,8.64
2023-02-11T19:26:36.406Z,8.61
2023-02-11T19:29:05.817Z,8.56
2023-02-11T19:31:33.093Z,8.53
2023-02-11T19:34:02.008Z,8.52
2023-02-11T19:36:29.776Z,8.53
2023-02-11T19:39:01.052Z,8.50
2023-02-11T19:41:29.608Z,8.42
2023-02-11T19:43:57.159Z,8.38
2023-02-11T19:46:26.118Z,8.38
2023-02-11T19:48:53.694Z,8.33
2023-02-11T19:51:21.091Z,8.30
2023-02-11T19:53:49.001Z,8.31
2023-02-11T19:56:16.304Z,8.29
2023-02-11T19:58:44.347Z,8.31
2023-02-11T20:01:13.072Z,8.30
2023-02-11T20:03:42.417Z,8.27
2023-02-11T20:06:13.174Z,8.26
2023-02-11T20:08:41.402Z,8.25
2023-02-11T20:11:11.239Z,8.23
2023-02-11T20:13:38.694Z,8.19
2023-02-11T20:16:14.200Z,8.17
2023-02-11T20:18:41.373Z,8.14
2023-02-11T20:21:10.979Z,8.13
2023-02-11T20:23:40.350Z,8.12
2023-02-11T20:26:09.885Z,8.11
2023-02-11T20:28:37.301Z,8.13
2023-02-11T20:31:05.771Z,8.15
2023-02-11T20:33:34.932Z,8.13
2023-02-11T20:36:23.671Z,8.12
2023-02-11T20:38:51.668Z,8.09
2023-02-11T20:41:22.479Z,8.04
2023-02-11T20:43:53.278Z,8.00
2023-02-11T20:46:23.831Z,7.99
2023-02-11T20:48:52.212Z,8.00
2023-02-11T20:51:23.070Z,7.97
2023-02-11T20:53:54.270Z,7.96
2023-02-11T20:56:24.150Z,7.93
2023-02-11T20:58:51.614Z,7.91
2023-02-11T21:01:24.098Z,7.87
2023-02-11T21:04:02.566Z,7.88
2023-02-11T21:06:36.161Z,7.86
2023-02-11T21:09:05.722Z,7.84
2023-02-11T21:11:32.938Z,7.82
2023-02-11T21:14:02.534Z,7.81
2023-02-11T21:16:31.458Z,7.80
2023-02-11T21:18:58.728Z,7.74
2023-02-11T21:21:26.322Z,7.73
2023-02-11T21:23:53.379Z,7.73
2023-02-11T21:26:20.548Z,7.72
2023-02-11T21:28:48.827Z,7.70
2023-02-11T21:31:27.902Z,7.67
2023-02-11T21:33:55.672Z,7.66
2023-02-11T21:36:24.092Z,7.61
2023-02-11T21:38:51.291Z,7.54
2023-02-11T21:41:21.345Z,7.45
2023-02-11T21:43:49.209Z,7.48
2023-02-11T21:46:17.563Z,7.47
2023-02-11T21:48:44.851Z,7.43
2023-02-11T21:51:19.190Z,7.39
2023-02-11T21:53:46.600Z,7.38
2023-02-11T21:56:16.373Z,7.38
2023-02-11T21:58:43.865Z,7.44
2023-02-11T22:01:20.001Z,7.51
2023-02-11T22:03:47.884Z,7.52
2023-02-11T22:06:21.757Z,7.49
2023-02-11T22:08:50.246Z,7.47
2023-02-11T22:11:17.901Z,7.54
2023-02-11T22:13:45.998Z,7.60
2023-02-11T22:16:15.958Z,7.58
2023-02-11T22:18:47.109Z,7.54
2023-02-11T22:21:18.399Z,7.46
2023-02-11T22:23:46.130Z,7.38
2023-02-11T22:26:15.963Z,7.35
2023-02-11T22:28:43.855Z,7.29
2023-02-11T22:31:19.244Z,7.26
2023-02-11T22:33:46.998Z,7.26
2023-02-11T22:36:22.627Z,7.22
2023-02-11T22:38:50.336Z,7.23
2023-02-11T22:41:18.829Z,7.20
2023-02-11T22:43:46.432Z,7.19
2023-02-11T22:46:16.807Z,7.16
2023-02-11T22:48:44.255Z,7.17
2023-02-11T22:51:14.403Z,7.19
2023-02-11T22:53:43.778Z,7.17
2023-02-11T22:56:15.310Z,7.13
2023-02-11T22:58:43.268Z,7.10
2023-02-11T23:01:10.657Z,7.07
2023-02-11T23:03:37.842Z,7.06
2023-02-11T23:06:05.648Z,7.03
2023-02-11T23:08:33.802Z,7.00
2023-02-11T23:11:10.197Z,6.97
2023-02-11T23:13:39.836Z,6.94
2023-02-11T23:16:10.674Z,6.93
2023-02-11T23:18:39.532Z,6.93
2023-02-11T23:21:12.351Z,6.89
2023-02-11T23:23:40.141Z,6.88
2023-02-11T23:26:13.413Z,6.86
2023-02-11T23:28:41.090Z,6.87
2023-02-11T23:31:14.186Z,6.89
2023-02-11T23:33:41.381Z,6.88
2023-02-11T23:36:08.663Z,6.87
2023-02-11T23:38:35.847Z,6.85
2023-02-11T23:41:03.129Z,6.79
2023-02-11T23:43:30.542Z,6.76
2023-02-11T23:45:57.930Z,6.70
2023-02-11T23:48:26.044Z,6.70
2023-02-11T23:50:53.553Z,6.69
2023-02-11T23:53:20.731Z,6.68
2023-02-11T23:55:47.825Z,6.70
2023-02-11T23:58:16.845Z,6.71
